createdAt,value
2022-10-18T00:00:20.389Z,18.52
2022-10-18T00:02:47.454Z,18.51
2022-10-18T00:05:14.425Z,18.53
2022-10-18T00:07:41.415Z,18.54
2022-10-18T00:10:09.790Z,18.54
2022-10-18T00:12:38.275Z,18.55
2022-10-18T00:15:07.889Z,18.57
2022-10-18T00:17:36.725Z,18.60
2022-10-18T00:20:06.024Z,18.61
2022-10-18T00:22:39.545Z,18.60
2022-10-18T00:25:08.110Z,18.61
2022-10-18T00:27:35.928Z,18.65
2022-10-18T00:30:03.186Z,18.69
2022-10-18T00:32:30.863Z,18.72
2022-10-18T00:34:58.088Z,18.74
2022-10-18T00:37:25.134Z,18.76
2022-10-18T00:42:30.720Z,18.76
2022-10-18T00:45:13.028Z,18.73
2022-10-18T00:47:40.960Z,18.71
2022-10-18T00:50:09.014Z,18.67
2022-10-18T00:52:41.669Z,18.63
2022-10-18T00:55:10.054Z,18.60
2022-10-18T00:57:38.331Z,18.58
2022-10-18T01:00:10.070Z,18.56
2022-10-18T01:02:40.943Z,18.54
2022-10-18T01:05:13.961Z,18.54
2022-10-18T01:08:24.286Z,18.53
2022-10-18T01:11:09.769Z,18.52
2022-10-18T01:13:57.105Z,18.51
2022-10-18T01:17:08.219Z,18.52
2022-10-18T01:20:37.363Z,18.50
2022-10-18T01:23:43.556Z,18.47
2022-10-18T01:26:35.086Z,18.46
2022-10-18T01:29:41.522Z,18.40
2022-10-18T01:32:25.366Z,18.38
2022-10-18T01:34:59.550Z,18.35
2022-10-18T01:37:29.332Z,18.34
2022-10-18T01:40:00.001Z,18.31
2022-10-18T01:42:27.508Z,18.29
2022-10-18T01:44:54.997Z,18.27
2022-10-18T01:47:23.362Z,18.26
2022-10-18T01:49:56.403Z,18.23
2022-10-18T01:52:23.348Z,18.20
2022-10-18T01:54:50.377Z,18.20
2022-10-18T01:57:36.833Z,18.15
2022-10-18T02:00:25.192Z,18.12
2022-10-18T02:03:26.045Z,18.09
2022-10-18T02:06:17.007Z,18.08
2022-10-18T02:09:16.307Z,18.07
2022-10-18T02:11:46.342Z,18.05
2022-10-18T02:14:16.195Z,18.05
2022-10-18T02:16:53.450Z,18.04
2022-10-18T02:19:29.774Z,18.02
2022-10-18T02:21:58.445Z,18.02
2022-10-18T02:24:34.558Z,18.01
2022-10-18T02:27:02.221Z,17.98
2022-10-18T02:29:30.733Z,17.98
2022-10-18T02:32:24.828Z,17.95
2022-10-18T02:35:10.296Z,17.88
2022-10-18T02:37:40.159Z,17.84
2022-10-18T02:40:10.098Z,17.81
2022-10-18T02:42:44.190Z,17.76
2022-10-18T02:45:13.145Z,17.73
2022-10-18T02:47:40.103Z,17.69
2022-10-18T02:50:07.796Z,17.65
2022-10-18T02:52:34.739Z,17.62
2022-10-18T02:55:01.821Z,17.59
2022-10-18T02:57:29.092Z,17.59
2022-10-18T02:59:56.397Z,17.57
2022-10-18T03:02:23.417Z,17.56
2022-10-18T03:04:50.408Z,17.54
2022-10-18T03:07:17.385Z,17.55
2022-10-18T03:09:44.381Z,17.55
2022-10-18T03:12:11.343Z,17.52
2022-10-18T03:14:38.276Z,17.52
2022-10-18T03:17:05.257Z,17.49
2022-10-18T03:19:32.189Z,17.49
2022-10-18T03:21:59.160Z,17.47
2022-10-18T03:24:26.134Z,17.47
2022-10-18T03:26:53.043Z,17.46
2022-10-18T03:29:19.970Z,17.47
2022-10-18T03:31:47.107Z,17.47
2022-10-18T03:34:15.650Z,17.46
2022-10-18T03:36:42.581Z,17.46
2022-10-18T03:39:12.132Z,17.46
2022-10-18T03:41:39.202Z,17.46
2022-10-18T03:44:06.152Z,17.48
2022-10-18T03:46:33.084Z,17.49
2022-10-18T03:49:00.047Z,17.51
2022-10-18T03:51:26.995Z,17.52
2022-10-18T03:53:53.918Z,17.54
2022-10-18T03:56:20.980Z,17.56
2022-10-18T03:58:48.003Z,17.56
2022-10-18T04:01:14.999Z,17.56
2022-10-18T04:03:41.944Z,17.55
2022-10-18T04:06:09.860Z,17.56
2022-10-18T04:08:36.877Z,17.56
2022-10-18T04:11:11.131Z,17.57
2022-10-18T04:13:38.723Z,17.57
2022-10-18T04:16:05.873Z,17.58
2022-10-18T04:18:32.867Z,17.59
2022-10-18T04:20:59.827Z,17.59
2022-10-18T04:23:26.777Z,17.62
2022-10-18T04:25:53.753Z,17.64
2022-10-18T04:28:20.670Z,17.66
2022-10-18T04:30:54.127Z,17.66
2022-10-18T04:33:21.099Z,17.67
2022-10-18T04:35:51.532Z,17.69
2022-10-18T04:38:19.776Z,17.71
2022-10-18T04:40:46.857Z,17.72
2022-10-18T04:43:13.860Z,17.73
2022-10-18T04:45:40.802Z,17.74
2022-10-18T04:48:08.885Z,17.75
2022-10-18T04:50:35.990Z,17.74
2022-10-18T04:53:14.001Z,17.75
2022-10-18T04:55:50.019Z,17.75
2022-10-18T04:58:18.555Z,17.75
2022-10-18T05:00:45.849Z,17.76
2022-10-18T05:03:13.919Z,17.75
2022-10-18T05:06:00.111Z,17.73
2022-10-18T05:08:28.346Z,17.72
2022-10-18T05:10:55.376Z,17.72
2022-10-18T05:13:22.342Z,17.72
2022-10-18T05:15:49.775Z,17.71
2022-10-18T05:18:16.786Z,17.69
2022-10-18T05:20:43.954Z,17.67
2022-10-18T05:23:11.040Z,17.67
2022-10-18T05:25:40.287Z,17.66
2022-10-18T05:28:15.618Z,17.64
2022-10-18T05:30:48.117Z,17.65
2022-10-18T05:33:15.053Z,17.65
2022-10-18T05:35:42.415Z,17.64
2022-10-18T05:38:09.366Z,17.65
2022-10-18T05:40:39.494Z,17.65
2022-10-18T05:43:06.450Z,17.62
2022-10-18T05:45:33.461Z,17.61
2022-10-18T05:48:00.493Z,17.60
2022-10-18T05:50:27.541Z,17.57
2022-10-18T05:53:06.865Z,17.54
2022-10-18T05:55:39.609Z,17.53
2022-10-18T05:58:06.675Z,17.50
2022-10-18T06:00:33.795Z,17.49
2022-10-18T06:03:00.912Z,17.47
2022-10-18T06:05:28.135Z,17.44
2022-10-18T06:07:56.602Z,17.42
2022-10-18T06:10:23.590Z,17.42
2022-10-18T06:12:50.629Z,17.38
2022-10-18T06:15:20.201Z,17.36
2022-10-18T06:17:47.426Z,17.35
2022-10-18T06:20:14.498Z,17.33
2022-10-18T06:22:41.478Z,17.35
2022-10-18T06:25:09.029Z,17.32
2022-10-18T06:27:35.966Z,17.31
2022-10-18T06:30:03.521Z,17.30
2022-10-18T06:32:30.534Z,17.29
2022-10-18T06:34:57.503Z,17.30
2022-10-18T06:37:24.479Z,17.29
2022-10-18T06:39:51.442Z,17.28
2022-10-18T06:42:20.458Z,17.26
2022-10-18T06:44:49.943Z,17.24
2022-10-18T06:47:16.922Z,17.22
2022-10-18T06:49:43.899Z,17.23
2022-10-18T06:52:10.843Z,17.21
2022-10-18T06:54:37.758Z,17.19
2022-10-18T06:57:04.734Z,17.16
2022-10-18T06:59:31.731Z,17.15
2022-10-18T07:01:58.741Z,17.14
2022-10-18T07:04:29.745Z,17.12
2022-10-18T07:06:56.982Z,17.11
2022-10-18T07:09:24.051Z,17.09
2022-10-18T07:11:52.742Z,17.09
2022-10-18T07:14:19.990Z,17.07
2022-10-18T07:16:46.957Z,17.07
2022-10-18T07:19:14.924Z,17.08
2022-10-18T07:21:41.890Z,17.10
2022-10-18T07:24:08.822Z,17.11
2022-10-18T07:26:36.438Z,17.13
2022-10-18T07:29:11.640Z,17.14
2022-10-18T07:31:39.057Z,17.14
2022-10-18T07:34:08.729Z,17.18
2022-10-18T07:36:35.677Z,17.19
2022-10-18T07:39:02.943Z,17.19
2022-10-18T07:41:31.860Z,17.21
2022-10-18T07:43:59.077Z,17.18
2022-10-18T07:46:26.075Z,17.15
2022-10-18T07:48:53.203Z,17.16
2022-10-18T07:51:21.155Z,17.13
2022-10-18T07:53:48.535Z,17.12
2022-10-18T07:56:21.629Z,17.10
2022-10-18T07:58:54.026Z,17.09
2022-10-18T08:01:25.939Z,17.07
2022-10-18T08:03:53.967Z,17.07
2022-10-18T08:06:22.665Z,17.06
2022-10-18T08:08:49.908Z,17.04
2022-10-18T08:11:23.919Z,17.04
2022-10-18T08:13:52.257Z,17.02
2022-10-18T08:18:59.399Z,16.96
2022-10-18T08:21:26.876Z,16.92
2022-10-18T08:23:53.944Z,16.90
2022-10-18T08:26:22.670Z,16.88
2022-10-18T08:29:03.633Z,16.87
2022-10-18T08:31:37.222Z,16.85
2022-10-18T08:34:04.161Z,16.85
2022-10-18T08:36:31.087Z,16.85
2022-10-18T08:38:58.024Z,16.86
2022-10-18T08:41:37.162Z,16.86
2022-10-18T08:44:22.635Z,16.87
2022-10-18T08:46:55.101Z,16.90
2022-10-18T08:49:29.758Z,16.92
2022-10-18T08:51:58.723Z,16.93
2022-10-18T08:54:52.439Z,16.94
2022-10-18T08:57:20.353Z,16.91
2022-10-18T08:59:47.307Z,16.87
2022-10-18T09:02:28.911Z,16.83
2022-10-18T09:05:01.402Z,16.77
2022-10-18T09:07:46.159Z,16.76
2022-10-18T09:10:43.429Z,16.76
2022-10-18T09:14:03.066Z,16.78
2022-10-18T09:16:55.044Z,16.79
2022-10-18T09:19:55.805Z,16.82
2022-10-18T09:22:35.428Z,16.85
2022-10-18T09:25:10.266Z,16.88
2022-10-18T09:27:52.346Z,16.95
2022-10-18T09:30:41.058Z,17.02
2022-10-18T09:33:28.379Z,17.07
2022-10-18T09:36:03.170Z,17.13
2022-10-18T09:38:44.459Z,17.14
2022-10-18T09:41:26.690Z,17.18
2022-10-18T09:44:25.675Z,17.18
2022-10-18T09:47:01.705Z,17.19
2022-10-18T09:49:45.070Z,17.21
2022-10-18T09:52:21.284Z,17.21
2022-10-18T09:55:23.793Z,17.25
2022-10-18T09:57:56.215Z,17.29
2022-10-18T10:00:44.311Z,17.36
2022-10-18T10:03:16.989Z,17.44
2022-10-18T10:05:45.024Z,17.52
2022-10-18T10:08:12.446Z,17.59
2022-10-18T10:10:46.488Z,17.69
2022-10-18T10:13:17.706Z,17.76
2022-10-18T10:15:57.458Z,17.84
2022-10-18T10:18:54.243Z,17.90
2022-10-18T10:21:22.247Z,17.96
2022-10-18T10:23:59.528Z,18.04
2022-10-18T10:26:34.095Z,18.07
2022-10-18T10:29:01.210Z,18.10
2022-10-18T10:31:32.734Z,18.14
2022-10-18T10:34:13.107Z,18.22
2022-10-18T10:36:52.317Z,18.28
2022-10-18T10:39:22.623Z,18.34
2022-10-18T10:41:58.907Z,18.38
2022-10-18T10:44:30.386Z,18.41
2022-10-18T10:46:57.874Z,18.40
2022-10-18T10:49:48.586Z,18.42
2022-10-18T10:52:36.555Z,18.43
2022-10-18T10:55:30.477Z,18.42
2022-10-18T10:57:53.537Z,18.42
2022-10-18T11:00:43.916Z,18.43
2022-10-18T11:03:34.280Z,18.45
2022-10-18T11:06:01.816Z,18.47
2022-10-18T11:08:37.824Z,18.51
2022-10-18T11:11:38.847Z,18.57
2022-10-18T11:14:30.536Z,18.64
2022-10-18T11:17:27.996Z,18.70
2022-10-18T11:20:20.843Z,18.76
2022-10-18T11:22:56.750Z,18.86
2022-10-18T11:25:34.162Z,18.95
2022-10-18T11:28:29.587Z,19.11
2022-10-18T11:31:14.872Z,19.25
2022-10-18T11:34:10.335Z,19.42
2022-10-18T11:37:22.865Z,19.56
2022-10-18T11:40:24.447Z,19.69
2022-10-18T11:43:57.509Z,19.80
2022-10-18T11:47:20.045Z,19.97
2022-10-18T11:49:50.788Z,20.05
2022-10-18T11:53:04.157Z,20.24
2022-10-18T11:56:01.969Z,20.41
2022-10-18T11:59:11.027Z,20.63
2022-10-18T12:02:17.612Z,20.74
2022-10-18T12:05:18.937Z,20.83
2022-10-18T12:08:34.677Z,20.81
2022-10-18T12:11:26.706Z,20.81
2022-10-18T12:14:02.086Z,20.77
2022-10-18T12:16:50.913Z,20.73
2022-10-18T12:19:27.610Z,20.70
2022-10-18T12:22:02.434Z,20.68
2022-10-18T12:24:31.895Z,20.70
2022-10-18T12:27:01.505Z,20.69
2022-10-18T12:29:44.324Z,20.71
2022-10-18T12:32:19.189Z,20.66
2022-10-18T12:35:00.821Z,20.63
2022-10-18T12:37:55.435Z,20.58
2022-10-18T12:40:42.765Z,20.54
2022-10-18T12:43:18.822Z,20.48
2022-10-18T12:45:58.775Z,20.50
2022-10-18T12:48:39.076Z,20.48
2022-10-18T12:51:20.794Z,20.46
2022-10-18T12:54:02.882Z,20.46
2022-10-18T12:56:29.689Z,20.40
2022-10-18T12:59:15.030Z,20.39
2022-10-18T13:01:50.818Z,20.39
2022-10-18T13:04:32.252Z,20.36
2022-10-18T13:07:04.695Z,20.34
2022-10-18T13:09:44.957Z,20.31
2022-10-18T13:12:14.329Z,20.28
2022-10-18T13:15:25.852Z,20.26
2022-10-18T13:17:59.772Z,20.23
2022-10-18T13:20:48.351Z,20.26
2022-10-18T13:23:42.370Z,20.27
2022-10-18T13:26:43.364Z,20.29
2022-10-18T13:29:58.248Z,20.29
2022-10-18T13:32:47.440Z,20.29
2022-10-18T13:35:54.964Z,20.28
2022-10-18T13:38:38.204Z,20.24
2022-10-18T13:41:21.767Z,20.25
2022-10-18T13:44:03.012Z,20.23
2022-10-18T13:46:32.830Z,20.22
2022-10-18T13:49:39.111Z,20.21
2022-10-18T13:53:08.113Z,20.20
2022-10-18T13:55:56.240Z,20.14
2022-10-18T13:59:15.801Z,20.12
2022-10-18T14:02:50.422Z,20.10
2022-10-18T14:06:10.521Z,20.09
2022-10-18T14:08:56.177Z,20.08
2022-10-18T14:11:35.966Z,20.08
2022-10-18T14:14:50.924Z,20.08
2022-10-18T14:17:42.879Z,20.08
2022-10-18T14:20:49.533Z,20.09
2022-10-18T14:23:34.485Z,20.07
2022-10-18T14:26:20.469Z,20.06
2022-10-18T14:29:07.362Z,20.03
2022-10-18T14:31:35.191Z,20.01
2022-10-18T14:34:03.059Z,19.99
2022-10-18T14:36:40.983Z,19.98
2022-10-18T14:39:23.837Z,19.95
2022-10-18T14:41:53.858Z,19.93
2022-10-18T14:44:31.284Z,19.92
2022-10-18T14:47:15.004Z,19.91
2022-10-18T14:49:46.537Z,19.89
2022-10-18T14:52:18.562Z,19.87
2022-10-18T14:54:46.435Z,19.86
2022-10-18T14:57:34.957Z,19.85
2022-10-18T15:00:17.422Z,19.83
2022-10-18T15:02:44.584Z,19.82
2022-10-18T15:05:25.104Z,19.81
2022-10-18T15:07:53.401Z,19.81
2022-10-18T15:10:33.580Z,19.78
2022-10-18T15:13:09.905Z,19.77
2022-10-18T15:15:38.327Z,19.76
2022-10-18T15:18:06.839Z,19.75
2022-10-18T15:20:42.908Z,19.73
2022-10-18T15:23:26.930Z,19.71
2022-10-18T15:26:12.482Z,19.68
2022-10-18T15:28:51.399Z,19.66
2022-10-18T15:31:30.039Z,19.62
2022-10-18T15:34:18.125Z,19.59
2022-10-18T15:36:45.748Z,19.55
2022-10-18T15:39:22.448Z,19.52
2022-10-18T15:41:57.478Z,19.49
2022-10-18T15:44:51.147Z,19.47
2022-10-18T15:47:21.596Z,19.43
2022-10-18T15:49:54.473Z,19.40
2022-10-18T15:52:40.585Z,19.38
2022-10-18T15:55:29.408Z,19.33
2022-10-18T15:58:11.351Z,19.33
2022-10-18T16:00:38.335Z,19.31
2022-10-18T16:03:09.182Z,19.28
2022-10-18T16:05:38.087Z,19.25
2022-10-18T16:08:05.322Z,19.24
2022-10-18T16:10:32.583Z,19.22
2022-10-18T16:12:59.792Z,19.20
2022-10-18T16:15:26.894Z,19.19
2022-10-18T16:17:53.826Z,19.18
2022-10-18T16:20:23.869Z,19.16
2022-10-18T16:22:50.855Z,19.15
2022-10-18T16:25:18.040Z,19.13
2022-10-18T16:27:44.966Z,19.12
2022-10-18T16:30:20.398Z,19.10
2022-10-18T16:32:48.825Z,19.09
2022-10-18T16:35:15.894Z,19.07
2022-10-18T16:37:43.276Z,19.06
2022-10-18T16:40:24.732Z,19.02
2022-10-18T16:42:52.070Z,19.01
2022-10-18T16:45:19.342Z,18.99
2022-10-18T16:47:46.608Z,18.97
2022-10-18T16:50:18.753Z,18.95
2022-10-18T16:52:45.701Z,18.94
2022-10-18T16:55:24.771Z,18.91
2022-10-18T16:57:52.033Z,18.90
2022-10-18T17:00:22.818Z,18.88
2022-10-18T17:02:50.457Z,18.87
2022-10-18T17:05:18.961Z,18.85
2022-10-18T17:07:46.884Z,18.84
2022-10-18T17:10:20.916Z,18.83
2022-10-18T17:12:47.966Z,18.81
2022-10-18T17:15:14.925Z,18.80
2022-10-18T17:17:42.018Z,18.75
2022-10-18T17:20:16.177Z,18.72
2022-10-18T17:22:43.094Z,18.70
2022-10-18T17:25:10.048Z,18.67
2022-10-18T17:27:37.058Z,18.65
2022-10-18T17:30:04.541Z,18.64
2022-10-18T17:32:31.626Z,18.63
2022-10-18T17:35:00.703Z,18.60
2022-10-18T17:37:27.743Z,18.58
2022-10-18T17:39:54.928Z,18.56
2022-10-18T17:42:21.941Z,18.55
2022-10-18T17:44:49.099Z,18.54
2022-10-18T17:47:16.782Z,18.51
2022-10-18T17:49:44.824Z,18.50
2022-10-18T17:52:11.928Z,18.48
2022-10-18T17:54:38.889Z,18.47
2022-10-18T17:57:05.818Z,18.43
2022-10-18T17:59:33.008Z,18.41
2022-10-18T18:02:00.079Z,18.39
2022-10-18T18:04:27.085Z,18.37
2022-10-18T18:06:54.229Z,18.35
2022-10-18T18:09:21.287Z,18.33
2022-10-18T18:11:49.271Z,18.29
2022-10-18T18:14:16.862Z,18.28
2022-10-18T18:16:46.624Z,18.26
2022-10-18T18:19:14.862Z,18.24
2022-10-18T18:21:42.611Z,18.22
2022-10-18T18:24:10.450Z,18.20
2022-10-18T18:26:40.765Z,18.17
2022-10-18T18:29:08.030Z,18.15
2022-10-18T18:31:38.853Z,18.13
2022-10-18T18:34:07.272Z,18.11
2022-10-18T18:36:34.295Z,18.09
2022-10-18T18:39:01.467Z,18.06
2022-10-18T18:41:29.047Z,18.04
2022-10-18T18:44:05.439Z,17.98
2022-10-18T18:46:38.720Z,17.92
2022-10-18T18:49:07.972Z,17.89
2022-10-18T18:51:37.990Z,17.87
2022-10-18T18:54:05.151Z,17.83
2022-10-18T18:56:32.191Z,17.82
2022-10-18T18:59:00.184Z,17.79
2022-10-18T19:01:30.852Z,17.79
2022-10-18T19:03:58.480Z,17.75
2022-10-18T19:06:41.642Z,17.74
2022-10-18T19:09:25.476Z,17.75
2022-10-18T19:11:54.826Z,17.74
2022-10-18T19:14:24.766Z,17.73
2022-10-18T19:16:59.339Z,17.72
2022-10-18T19:19:29.611Z,17.70
2022-10-18T19:22:03.591Z,17.68
2022-10-18T19:24:31.273Z,17.69
2022-10-18T19:27:05.343Z,17.65
2022-10-18T19:29:38.276Z,17.63
2022-10-18T19:32:08.513Z,17.62
2022-10-18T19:34:35.942Z,17.59
2022-10-18T19:37:03.736Z,17.57
2022-10-18T19:39:33.772Z,17.54
2022-10-18T19:42:04.460Z,17.50
2022-10-18T19:44:34.783Z,17.48
2022-10-18T19:47:02.714Z,17.46
2022-10-18T19:49:29.930Z,17.44
2022-10-18T19:51:57.458Z,17.42
2022-10-18T19:54:24.981Z,17.41
2022-10-18T19:56:51.982Z,17.39
2022-10-18T19:59:19.313Z,17.36
2022-10-18T20:01:46.335Z,17.34
2022-10-18T20:04:14.359Z,17.30
2022-10-18T20:06:41.879Z,17.27
2022-10-18T20:09:13.374Z,17.23
2022-10-18T20:11:43.299Z,17.19
2022-10-18T20:14:10.757Z,17.15
2022-10-18T20:16:37.827Z,17.12
2022-10-18T20:19:07.117Z,17.10
2022-10-18T20:21:35.680Z,17.07
2022-10-18T20:24:07.482Z,17.05
2022-10-18T20:26:35.753Z,17.02
2022-10-18T20:29:03.749Z,17.02
2022-10-18T20:31:35.419Z,17.00
2022-10-18T20:34:06.198Z,16.99
2022-10-18T20:36:33.785Z,16.93
2022-10-18T20:39:01.919Z,16.94
2022-10-18T20:41:33.650Z,16.94
2022-10-18T20:44:04.307Z,16.94
2022-10-18T20:46:34.199Z,16.94
2022-10-18T20:49:01.449Z,16.94
2022-10-18T20:51:28.678Z,16.95
2022-10-18T20:53:56.027Z,16.94
2022-10-18T20:56:26.508Z,16.94
2022-10-18T20:58:56.725Z,16.95
2022-10-18T21:01:33.121Z,16.92
2022-10-18T21:04:06.910Z,16.92
2022-10-18T21:06:40.921Z,16.89
2022-10-18T21:09:14.827Z,16.89
2022-10-18T21:11:44.926Z,16.87
2022-10-18T21:14:21.014Z,16.85
2022-10-18T21:16:49.798Z,16.84
2022-10-18T21:19:19.527Z,16.82
2022-10-18T21:21:50.447Z,16.79
2022-10-18T21:24:19.376Z,16.77
2022-10-18T21:26:47.785Z,16.75
2022-10-18T21:29:20.777Z,16.73
2022-10-18T21:31:49.070Z,16.72
2022-10-18T21:34:17.420Z,16.70
2022-10-18T21:36:47.112Z,16.69
2022-10-18T21:39:20.610Z,16.68
2022-10-18T21:41:49.920Z,16.69
2022-10-18T21:44:18.548Z,16.68
2022-10-18T21:46:46.858Z,16.68
2022-10-18T21:49:14.869Z,16.66
2022-10-18T21:51:42.878Z,16.66
2022-10-18T21:54:15.983Z,16.63
2022-10-18T21:56:43.432Z,16.59
2022-10-18T21:59:13.022Z,16.55
2022-10-18T22:01:40.491Z,16.51
2022-10-18T22:04:25.175Z,16.47
2022-10-18T22:06:52.278Z,16.46
2022-10-18T22:09:21.045Z,16.43
2022-10-18T22:11:52.648Z,16.40
2022-10-18T22:14:21.052Z,16.38
2022-10-18T22:16:48.199Z,16.37
2022-10-18T22:19:15.194Z,16.34
2022-10-18T22:21:42.133Z,16.34
2022-10-18T22:24:09.562Z,16.32
2022-10-18T22:26:39.799Z,16.31
2022-10-18T22:29:33.184Z,16.25
2022-10-18T22:32:01.750Z,16.23
2022-10-18T22:34:28.734Z,16.20
2022-10-18T22:36:56.377Z,16.17
2022-10-18T22:39:24.527Z,16.16
2022-10-18T22:41:55.601Z,16.16
2022-10-18T22:44:22.714Z,16.15
2022-10-18T22:46:49.659Z,16.14
2022-10-18T22:49:16.625Z,16.14
2022-10-18T22:51:43.816Z,16.13
2022-10-18T22:54:11.033Z,16.12
2022-10-18T22:56:38.082Z,16.12
2022-10-18T22:59:05.136Z,16.08
2022-10-18T23:01:32.461Z,16.08
2022-10-18T23:04:00.530Z,16.06
2022-10-18T23:06:34.055Z,16.03
2022-10-18T23:09:05.966Z,16.01
2022-10-18T23:11:35.102Z,15.98
2022-10-18T23:14:03.924Z,15.96
2022-10-18T23:16:31.395Z,15.93
2022-10-18T23:18:59.369Z,15.91
2022-10-18T23:21:28.485Z,15.87
2022-10-18T23:23:56.121Z,15.85
2022-10-18T23:26:26.604Z,15.83
2022-10-18T23:28:54.404Z,15.80
2022-10-18T23:31:29.493Z,15.79
2022-10-18T23:34:00.251Z,15.77
2022-10-18T23:36:27.807Z,15.72
2022-10-18T23:38:55.569Z,15.72
2022-10-18T23:41:23.641Z,15.71
2022-10-18T23:43:50.918Z,15.67
2022-10-18T23:46:18.605Z,15.65
2022-10-18T23:48:46.545Z,15.61
2022-10-18T23:51:14.158Z,15.58
2022-10-18T23:53:41.516Z,15.54
2022-10-18T23:56:15.661Z,15.49
2022-10-18T23:58:44.188Z,15.48
